createdAt,value
2022-11-08T00:03:47.021Z,11.5
2022-11-08T00:18:47.026Z,11.6
2022-11-08T00:33:47.056Z,11.4
2022-11-08T00:48:47.013Z,11.6
2022-11-08T01:03:47.007Z,11.4
2022-11-08T01:18:47.017Z,11.2
2022-11-08T01:33:50.969Z,11.2
2022-11-08T01:48:46.982Z,11.1
2022-11-08T02:03:46.970Z,10.8
2022-11-08T02:18:46.994Z,10.5
2022-11-08T02:33:46.990Z,10.4
2022-11-08T02:48:46.988Z,10.2
2022-11-08T03:03:47.020Z,10.1
2022-11-08T03:18:46.995Z,10
2022-11-08T03:33:47.032Z,9.8
2022-11-08T03:48:47.001Z,9.6
2022-11-08T04:03:46.993Z,9.4
2022-11-08T04:18:47.025Z,9.3
2022-11-08T04:33:47.030Z,9.1
2022-11-08T04:48:46.989Z,9.2
2022-11-08T05:03:47.012Z,9.1
2022-11-08T05:18:47.004Z,8.9
2022-11-08T05:33:46.993Z,9.1
2022-11-08T05:48:47.037Z,8.9
2022-11-08T06:03:46.999Z,8.9
2022-11-08T06:18:47.028Z,8.6
2022-11-08T06:33:46.988Z,8.8
2022-11-08T06:48:47.000Z,9.8
2022-11-08T07:03:46.992Z,10.2
2022-11-08T07:18:47.108Z,11
2022-11-08T07:33:47.041Z,10.9
2022-11-08T07:48:46.992Z,11.3
2022-11-08T08:03:46.986Z,11.5
2022-11-08T08:18:46.992Z,11.7
2022-11-08T08:33:46.983Z,11.9
2022-11-08T08:48:46.972Z,12.2
2022-11-08T09:03:47.005Z,12.2
2022-11-08T09:18:47.101Z,12.6
2022-11-08T09:33:46.997Z,13.1
2022-11-08T09:48:46.988Z,13.2
2022-11-08T10:03:47.002Z,13.5
2022-11-08T10:18:47.002Z,13.8
2022-11-08T10:33:46.984Z,14.2
2022-11-08T10:48:47.016Z,14.6
2022-11-08T11:03:47.025Z,14.5
2022-11-08T11:18:46.984Z,15.1
2022-11-08T11:33:46.956Z,15.6
2022-11-08T11:48:46.992Z,15.8
2022-11-08T12:03:46.981Z,16.1
2022-11-08T12:18:47.306Z,16
2022-11-08T12:33:46.980Z,15.9
2022-11-08T12:48:47.006Z,15.9
2022-11-08T13:03:47.020Z,15.7
2022-11-08T13:18:46.997Z,15.8
2022-11-08T13:33:46.960Z,15.7
2022-11-08T13:48:46.978Z,15.6
2022-11-08T14:03:46.995Z,15.7
2022-11-08T14:18:46.999Z,15.8
2022-11-08T14:33:47.031Z,15.7
2022-11-08T14:48:47.001Z,15.9
2022-11-08T15:03:46.975Z,15.6
2022-11-08T15:18:46.979Z,15.7
2022-11-08T15:33:46.986Z,15.7
2022-11-08T15:48:46.986Z,15.6
2022-11-08T16:03:46.994Z,15.5
2022-11-08T16:18:47.001Z,15.2
2022-11-08T16:33:46.993Z,15.4
2022-11-08T16:48:46.993Z,15.4
2022-11-08T17:03:46.978Z,15.3
2022-11-08T17:18:51.452Z,15.4
2022-11-08T17:33:46.988Z,15.2
2022-11-08T17:48:47.004Z,15.3
2022-11-08T18:03:46.993Z,15.2
2022-11-08T18:18:47.034Z,15.1
2022-11-08T18:33:46.995Z,15.2
2022-11-08T18:48:46.958Z,15
2022-11-08T19:03:46.988Z,14.9
2022-11-08T19:18:46.988Z,14.9
2022-11-08T19:33:47.012Z,14.7
2022-11-08T19:48:47.041Z,14.6
2022-11-08T20:03:47.052Z,14.6
2022-11-08T20:18:46.982Z,14.5
2022-11-08T20:33:46.988Z,14.4
2022-11-08T20:48:50.551Z,14.5
2022-11-08T21:03:46.982Z,14.5
2022-11-08T21:18:46.988Z,14.4
2022-11-08T21:33:47.030Z,14.4
2022-11-08T21:48:46.986Z,14.3
2022-11-08T22:03:47.003Z,14.2
2022-11-08T22:19:06.439Z,14.2
2022-11-08T22:33:46.987Z,14.2
2022-11-08T22:48:46.997Z,14.2
2022-11-08T23:03:47.021Z,14.1
2022-11-08T23:18:47.003Z,14
2022-11-08T23:33:47.012Z,13.9
2022-11-08T23:48:47.015Z,13.8
